NORTHEAST SUFFOLK  -  Coastal Flood Statement Coastal Flood Statement        NORTHERN NASSAU  -  Coastal Flood Statement Coastal Flood Statement     Coastal Flood Statement Coastal Flood Statement        NORTHERN QUEENS  -  Coastal Flood Statement Coastal Flood Statement        NORTHWEST SUFFOLK  -  Coastal Flood Statement Coastal Flood Statement        SOUTHEAST SUFFOLK  -  Coastal Flood Statement Coastal Flood Statement        SOUTHERN NASSAU  -  Coastal Flood Statement Coastal Flood Statement     Coastal Flood Statement Coastal Flood Statement        SOUTHERN QUEENS  -  Coastal Flood Statement Coastal Flood Statement        SOUTHWEST SUFFOLK  -  Coastal Flood Statement Coastal Flood Statement      

Active alerts

Northern Queens
  Details for Northern Queens Coastal Flood Statement
Southern Queens
  Details for Southern Queens Coastal Flood Statement
Northern Nassau
  Details for Northern Nassau Coastal Flood Statement  +1 additional alert
Southern Nassau
  Details for Southern Nassau Coastal Flood Statement  +1 additional alert
Northwest Suffolk
  Details for Northwest Suffolk Coastal Flood Statement
Southwest Suffolk
  Details for Southwest Suffolk Coastal Flood Statement
Northeast Suffolk
  Details for Northeast Suffolk Coastal Flood Statement
Southeast Suffolk
  Details for Southeast Suffolk Coastal Flood Statement


WXM80 ListenWXM80 Stop

You find our weather info also at:

UK Metoffice

WeatherCloud

Weather Underground

Northeastern Weather Network

AWEKAS

Citizen Weather Observer Program (CWOP)

HAMweather, WeatherForYou, PWS Weather


Weather Underground History page Text

Daily Summary for December 15, 2017 Units:  English    Metric   Both
« Previous Day
Next Day »
Daily Weekly Monthly Yearly Custom
  High: Low: Average:
Temperature: 30.9 °F 18.8 °F 25.7 °F
Dew Point: 25.3 °F 11.2 °F 19.5 °F
Humidity: 92 % 61 % 78 %
Wind Speed: 7.5 mph 0.0 mph 1.5 mph
Wind Gust: 13.8 mph - -
Wind:- - WSW
Pressure: 30.13 in 29.69 in -
Precipitation: 0.10 in    
Historical Graphs
 
 
Tabular Data for December 15, 2017
Time Temperature Dew Point Pressure Wind Wind Speed Wind Gust Humidity Rainfall Rate (Hourly)
00:03 23.3 °F 11.8 °F 30.08 in WNW 2.3 mph 9.2 mph 61 % 0.00 in
00:09 23.2 °F 11.7 °F 30.08 in WNW 4.7 mph 12.7 mph 61 % 0.00 in
00:14 23.1 °F 12.0 °F 30.09 in WNW 7.5 mph 11.0 mph 62 % 0.00 in
00:19 23.0 °F 11.5 °F 30.09 in WNW 7.0 mph 13.8 mph 61 % 0.00 in
00:24 22.9 °F 11.4 °F 30.08 in WSW 6.2 mph 10.0 mph 61 % 0.00 in
00:29 22.9 °F 11.8 °F 30.08 in WNW 7.2 mph 12.7 mph 62 % 0.00 in
00:34 22.9 °F 11.8 °F 30.08 in WNW 3.1 mph 9.2 mph 62 % 0.00 in
00:39 22.8 °F 11.7 °F 30.08 in NW 5.0 mph 10.4 mph 62 % 0.00 in
00:45 22.7 °F 11.6 °F 30.08 in NNW 4.7 mph 8.1 mph 62 % 0.00 in
00:50 22.6 °F 11.5 °F 30.08 in West 4.7 mph 6.9 mph 62 % 0.00 in
00:55 22.5 °F 11.4 °F 30.09 in WSW 4.5 mph 11.5 mph 62 % 0.00 in
01:00 22.5 °F 11.8 °F 30.09 in West 3.7 mph 10.4 mph 63 % 0.00 in
01:02 22.4 °F 11.3 °F 30.09 in NW 5.2 mph 11.0 mph 62 % 0.00 in
01:07 22.4 °F 11.3 °F 30.10 in NW 5.9 mph 10.4 mph 62 % 0.00 in
01:12 22.3 °F 11.2 °F 30.10 in WNW 4.5 mph 9.2 mph 62 % 0.00 in
01:17 22.3 °F 11.2 °F 30.10 in West 5.0 mph 10.4 mph 62 % 0.00 in
01:22 22.2 °F 11.5 °F 30.10 in West 5.8 mph 11.5 mph 63 % 0.00 in
01:27 22.3 °F 11.6 °F 30.10 in WNW 5.2 mph 11.5 mph 63 % 0.00 in
01:32 22.3 °F 11.6 °F 30.10 in WNW 1.0 mph 8.1 mph 63 % 0.00 in
01:37 22.3 °F 12.0 °F 30.10 in WNW 4.5 mph 8.1 mph 64 % 0.00 in
01:41 22.3 °F 12.0 °F 30.11 in West 4.1 mph 8.1 mph 64 % 0.00 in
01:46 22.3 °F 12.0 °F 30.11 in WNW 2.2 mph 4.6 mph 64 % 0.00 in
01:51 22.2 °F 11.9 °F 30.10 in West 4.3 mph 8.1 mph 64 % 0.00 in
01:56 22.2 °F 12.2 °F 30.11 in WNW 4.5 mph 8.1 mph 65 % 0.00 in
02:01 22.3 °F 12.3 °F 30.10 in West 3.4 mph 6.9 mph 65 % 0.00 in
02:06 22.2 °F 12.2 °F 30.11 in West 3.8 mph 5.0 mph 65 % 0.00 in
02:12 22.3 °F 12.7 °F 30.11 in WNW 0.2 mph 3.5 mph 66 % 0.00 in
02:17 22.3 °F 12.7 °F 30.10 in West 2.6 mph 6.9 mph 66 % 0.00 in
02:22 22.2 °F 12.6 °F 30.10 in West 1.9 mph 6.9 mph 66 % 0.00 in
02:27 22.2 °F 12.6 °F 30.11 in NW 0.6 mph 3.5 mph 66 % 0.00 in
02:32 22.2 °F 12.9 °F 30.11 in West 2.2 mph 5.8 mph 67 % 0.00 in
02:37 22.2 °F 12.9 °F 30.11 in WNW 2.0 mph 5.8 mph 67 % 0.00 in
02:42 22.2 °F 12.9 °F 30.11 in WNW 5.0 mph 8.1 mph 67 % 0.00 in
02:48 22.2 °F 12.9 °F 30.10 in WNW 4.8 mph 7.0 mph 67 % 0.00 in
02:53 22.3 °F 13.0 °F 30.11 in West 1.3 mph 8.1 mph 67 % 0.00 in
02:58 22.3 °F 13.0 °F 30.11 in NNW 3.4 mph 7.0 mph 67 % 0.00 in
03:03 22.3 °F 13.0 °F 30.11 in West 4.6 mph 9.2 mph 67 % 0.00 in
03:08 22.3 °F 13.0 °F 30.11 in WNW 4.1 mph 8.1 mph 67 % 0.00 in
03:13 22.4 °F 13.4 °F 30.11 in WNW 1.6 mph 4.6 mph 68 % 0.00 in
03:18 22.3 °F 13.0 °F 30.11 in West 3.1 mph 3.5 mph 67 % 0.00 in
03:23 22.3 °F 13.0 °F 30.11 in WSW 3.2 mph 8.1 mph 67 % 0.00 in
03:28 22.2 °F 13.2 °F 30.10 in WNW 3.2 mph 5.8 mph 68 % 0.00 in
03:33 22.2 °F 13.2 °F 30.11 in WNW 1.2 mph 5.8 mph 68 % 0.00 in
03:38 22.2 °F 13.6 °F 30.10 in WNW 1.4 mph 3.5 mph 69 % 0.00 in
03:43 22.2 °F 13.6 °F 30.10 in WNW 2.0 mph 5.8 mph 69 % 0.00 in
03:49 22.2 °F 13.6 °F 30.10 in West 3.0 mph 4.6 mph 69 % 0.00 in
03:54 22.2 °F 13.6 °F 30.10 in West 3.8 mph 4.0 mph 69 % 0.00 in
03:59 22.2 °F 13.9 °F 30.09 in NW 1.2 mph 4.6 mph 70 % 0.00 in
04:09 22.2 °F 13.9 °F 30.10 in NW 2.0 mph 3.5 mph 70 % 0.00 in
04:10 22.2 °F 13.9 °F 30.10 in NW 2.3 mph 3.0 mph 70 % 0.00 in
04:15 22.2 °F 13.9 °F 30.10 in NW 1.1 mph 3.0 mph 70 % 0.00 in
04:20 22.2 °F 14.2 °F 30.10 in WNW 2.5 mph 5.0 mph 71 % 0.00 in
04:25 22.2 °F 14.2 °F 30.10 in WNW 0.1 mph 3.5 mph 71 % 0.00 in
04:31 22.2 °F 14.2 °F 30.10 in WNW 2.0 mph 7.0 mph 71 % 0.00 in
04:36 22.2 °F 14.2 °F 30.10 in WNW 1.0 mph 7.0 mph 71 % 0.00 in
04:40 22.2 °F 14.2 °F 30.10 in WNW 1.4 mph 2.3 mph 71 % 0.00 in
04:45 22.1 °F 14.1 °F 30.10 in WSW 3.6 mph 8.1 mph 71 % 0.00 in
04:51 22.0 °F 14.0 °F 30.10 in West 3.0 mph 6.0 mph 71 % 0.00 in
04:56 21.9 °F 14.3 °F 30.10 in WSW 2.0 mph 5.0 mph 72 % 0.00 in
05:01 21.9 °F 14.3 °F 30.10 in Calm     72 % 0.00 in
05:06 21.8 °F 14.2 °F 30.10 in West 1.0 mph 3.0 mph 72 % 0.00 in
05:11 21.8 °F 14.2 °F 30.10 in Calm     72 % 0.00 in
05:16 21.6 °F 14.0 °F 30.10 in WNW 0.5 mph 3.5 mph 72 % 0.00 in
05:21 21.5 °F 13.9 °F 30.09 in WNW 0.3 mph 3.5 mph 72 % 0.00 in
05:26 21.5 °F 14.2 °F 30.10 in WNW 1.3 mph 2.3 mph 73 % 0.00 in
05:37 21.4 °F 14.1 °F 30.10 in Calm     73 % 0.00 in
05:42 21.3 °F 14.0 °F 30.10 in Calm     73 % 0.00 in
05:52 21.1 °F 13.8 °F 30.10 in Calm     73 % 0.00 in
05:57 20.9 °F 13.6 °F 30.09 in Calm     73 % 0.00 in
06:02 20.8 °F 13.5 °F 30.10 in Calm     73 % 0.00 in
06:12 20.5 °F 13.5 °F 30.10 in Calm     74 % 0.00 in
06:17 20.3 °F 13.3 °F 30.10 in Calm     74 % 0.00 in
06:22 20.1 °F 13.1 °F 30.10 in Calm     74 % 0.00 in
06:27 19.9 °F 13.3 °F 30.11 in WNW 1.0 mph 2.3 mph 75 % 0.00 in
06:33 19.7 °F 13.1 °F 30.11 in WNW 1.1 mph 2.0 mph 75 % 0.00 in
06:38 19.5 °F 13.2 °F 30.11 in West 2.0 mph 3.5 mph 76 % 0.00 in
06:43 19.3 °F 13.3 °F 30.11 in West 0.2 mph 2.3 mph 77 % 0.00 in
06:53 19.0 °F 13.3 °F 30.11 in West 1.2 mph 2.3 mph 78 % 0.00 in
06:58 18.9 °F 13.2 °F 30.11 in West 0.9 mph 2.3 mph 78 % 0.00 in
07:03 18.9 °F 13.5 °F 30.11 in West 1.1 mph 2.3 mph 79 % 0.00 in
07:08 18.8 °F 13.4 °F 30.11 in West 2.0 mph 3.5 mph 79 % 0.00 in
07:13 18.9 °F 13.5 °F 30.11 in Calm     79 % 0.00 in
07:18 18.9 °F 13.7 °F 30.11 in West 0.2 mph 1.2 mph 80 % 0.00 in
07:24 18.9 °F 13.7 °F 30.11 in West 0.5 mph 1.2 mph 80 % 0.00 in
07:29 19.0 °F 13.8 °F 30.11 in West 1.2 mph 2.3 mph 80 % 0.00 in
07:34 19.2 °F 14.3 °F 30.11 in West 1.2 mph 2.3 mph 81 % 0.00 in
07:44 19.5 °F 14.6 °F 30.11 in West 0.7 mph 1.2 mph 81 % 0.00 in
07:50 19.7 °F 14.5 °F 30.11 in West 0.5 mph 2.3 mph 80 % 0.00 in
07:55 19.9 °F 15.0 °F 30.11 in West 0.8 mph 2.3 mph 81 % 0.00 in
08:00 20.2 °F 15.3 °F 30.11 in West 0.8 mph 2.3 mph 81 % 0.00 in
08:05 20.4 °F 15.2 °F 30.11 in West 0.7 mph 2.3 mph 80 % 0.00 in
08:10 20.6 °F 15.4 °F 30.11 in West 1.3 mph 2.3 mph 80 % 0.00 in
08:15 20.8 °F 15.3 °F 30.11 in West 0.4 mph 2.0 mph 79 % 0.00 in
08:20 21.0 °F 15.8 °F 30.11 in West 0.4 mph 1.2 mph 80 % 0.00 in
08:25 21.2 °F 15.7 °F 30.11 in West 0.5 mph 3.5 mph 79 % 0.00 in
08:30 21.5 °F 16.0 °F 30.12 in West 1.3 mph 2.3 mph 79 % 0.00 in
08:35 21.7 °F 16.2 °F 30.11 in West 0.9 mph 1.2 mph 79 % 0.00 in
08:40 22.0 °F 16.5 °F 30.12 in West 0.7 mph 2.3 mph 79 % 0.00 in
08:45 22.3 °F 16.8 °F 30.12 in West 0.8 mph 2.3 mph 79 % 0.00 in
08:50 22.6 °F 16.8 °F 30.12 in Calm   1.2 mph 78 % 0.00 in
08:55 22.9 °F 16.8 °F 30.12 in West 0.8 mph 3.5 mph 77 % 0.00 in
09:00 23.2 °F 17.1 °F 30.12 in West 1.1 mph 1.2 mph 77 % 0.00 in
09:06 23.5 °F 17.0 °F 30.13 in West 1.0 mph 3.0 mph 76 % 0.00 in
09:16 24.3 °F 17.5 °F 30.13 in SW 1.0 mph 5.0 mph 75 % 0.00 in
09:21 24.7 °F 17.5 °F 30.13 in Calm   4.0 mph 74 % 0.00 in
09:25 25.0 °F 17.6 °F 30.13 in SSW 1.0 mph 4.0 mph 73 % 0.00 in
09:31 25.3 °F 17.5 °F 30.13 in SSW 1.0 mph 4.0 mph 72 % 0.00 in
09:35 25.5 °F 17.4 °F 30.13 in SSW 1.0 mph 3.0 mph 71 % 0.00 in
09:41 25.8 °F 17.4 °F 30.13 in SSW 2.0 mph 6.0 mph 70 % 0.00 in
09:46 26.0 °F 17.2 °F 30.13 in SSW 1.0 mph 5.0 mph 69 % 0.00 in
09:51 26.2 °F 17.1 °F 30.13 in SSW 1.0 mph 5.0 mph 68 % 0.00 in
09:56 26.4 °F 17.3 °F 30.12 in SSW 0.7 mph 1.2 mph 68 % 0.00 in
10:01 26.6 °F 17.5 °F 30.12 in Calm   1.2 mph 68 % 0.00 in
10:06 26.9 °F 17.4 °F 30.12 in Calm   1.2 mph 67 % 0.00 in
10:11 27.0 °F 17.1 °F 30.11 in Calm     66 % 0.00 in
10:16 27.2 °F 17.0 °F 30.11 in Calm     65 % 0.00 in
10:21 27.4 °F 17.2 °F 30.11 in WSW 0.4 mph 2.3 mph 65 % 0.00 in
10:26 27.6 °F 17.0 °F 30.11 in Calm     64 % 0.00 in
10:31 27.8 °F 17.2 °F 30.11 in WSW 0.3 mph 1.0 mph 64 % 0.00 in
10:41 28.1 °F 17.1 °F 30.10 in SW 1.4 mph 2.3 mph 63 % 0.00 in
10:46 28.2 °F 17.2 °F 30.10 in Calm     63 % 0.00 in
10:51 28.5 °F 18.2 °F 30.10 in Calm     65 % 0.00 in
10:56 28.7 °F 18.1 °F 30.09 in South 0.9 mph 3.5 mph 64 % 0.00 in
11:00 28.8 °F 17.8 °F 30.09 in Calm     63 % 0.00 in
11:05 29.0 °F 18.0 °F 30.08 in Calm     63 % 0.00 in
11:10 29.2 °F 18.2 °F 30.07 in Calm     63 % 0.00 in
11:15 29.4 °F 18.3 °F 30.07 in South 0.2 mph 3.5 mph 63 % 0.00 in
11:20 29.6 °F 18.9 °F 30.07 in NE 0.6 mph 3.5 mph 64 % 0.00 in
11:25 29.7 °F 19.4 °F 30.07 in ENE 0.5 mph 2.3 mph 65 % 0.00 in
11:30 29.8 °F 19.8 °F 30.06 in ESE 1.8 mph 3.5 mph 66 % 0.00 in
11:35 29.9 °F 19.6 °F 30.05 in Calm   2.3 mph 65 % 0.00 in
11:40 30.0 °F 19.7 °F 30.05 in South 1.2 mph 2.3 mph 65 % 0.00 in
11:45 30.1 °F 19.7 °F 30.04 in SE 0.5 mph 2.3 mph 65 % 0.00 in
11:50 30.1 °F 19.7 °F 30.04 in Calm   2.3 mph 65 % 0.00 in
11:56 30.2 °F 19.8 °F 30.04 in Calm   1.0 mph 65 % 0.00 in
12:01 30.1 °F 19.7 °F 30.03 in Calm   1.2 mph 65 % 0.00 in
12:06 30.2 °F 20.2 °F 30.04 in Calm   1.2 mph 66 % 0.00 in
12:11 30.3 °F 20.3 °F 30.03 in Calm     66 % 0.00 in
12:16 30.3 °F 20.3 °F 30.03 in Calm     66 % 0.00 in
12:21 30.4 °F 20.4 °F 30.03 in ESE 0.9 mph 2.3 mph 66 % 0.00 in
12:26 30.5 °F 20.1 °F 30.02 in Calm     65 % 0.00 in
12:31 30.5 °F 20.1 °F 30.02 in Calm     65 % 0.00 in
12:37 30.5 °F 20.1 °F 30.02 in North 1.1 mph 2.3 mph 65 % 0.00 in
12:42 30.5 °F 19.8 °F 30.01 in Calm   1.2 mph 64 % 0.00 in
12:47 30.5 °F 20.1 °F 30.01 in North 0.6 mph 1.2 mph 65 % 0.00 in
12:52 30.6 °F 20.2 °F 30.01 in North 0.3 mph 2.3 mph 65 % 0.00 in
12:57 30.6 °F 20.2 °F 30.01 in North 0.3 mph 2.3 mph 65 % 0.00 in
13:02 30.7 °F 20.7 °F 30.01 in Calm     66 % 0.00 in
13:07 30.8 °F 20.4 °F 30.00 in Calm     65 % 0.00 in
13:13 30.9 °F 20.9 °F 30.00 in Calm     66 % 0.00 in
13:18 30.9 °F 20.9 °F 29.99 in North 1.4 mph 2.3 mph 66 % 0.00 in
13:23 30.8 °F 20.4 °F 29.99 in Calm   1.2 mph 65 % 0.00 in
13:28 30.8 °F 20.8 °F 29.99 in North 0.1 mph 2.3 mph 66 % 0.00 in
13:33 30.8 °F 21.5 °F 29.98 in Calm     68 % 0.00 in
13:38 30.8 °F 21.5 °F 29.98 in Calm     68 % 0.00 in
13:43 30.7 °F 21.4 °F 29.98 in Calm     68 % 0.00 in
13:49 30.8 °F 21.5 °F 29.98 in Calm     68 % 0.00 in
13:54 30.8 °F 21.5 °F 29.97 in Calm     68 % 0.00 in
13:59 30.8 °F 21.5 °F 29.97 in Calm   2.3 mph 68 % 0.00 in
14:04 30.8 °F 21.5 °F 29.97 in NNW 0.1 mph 1.2 mph 68 % 0.00 in
14:09 30.7 °F 21.0 °F 29.97 in Calm     67 % 0.00 in
14:14 30.7 °F 21.0 °F 29.96 in Calm     67 % 0.00 in
14:19 30.5 °F 20.8 °F 29.95 in NNW 0.3 mph 1.2 mph 67 % 0.00 in
14:23 30.5 °F 20.8 °F 29.73 in Calm     67 % 0.00 in
14:28 30.4 °F 21.1 °F 29.95 in Calm     68 % 0.00 in
14:33 30.3 °F 21.3 °F 29.95 in NNW 0.2 mph 1.0 mph 69 % 0.00 in
14:38 30.3 °F 22.0 °F 29.95 in ENE 2.2 mph 4.0 mph 71 % 0.00 in
14:44 30.1 °F 22.5 °F 29.94 in NE 0.5 mph 3.5 mph 73 % 0.00 in
14:49 30.1 °F 22.8 °F 29.94 in NE 0.1 mph 1.2 mph 74 % 0.00 in
14:54 30.0 °F 23.0 °F 29.94 in Calm   2.3 mph 75 % 0.00 in
14:59 30.0 °F 23.4 °F 29.94 in NE 0.6 mph 2.3 mph 76 % 0.00 in
15:04 29.9 °F 23.6 °F 29.93 in Calm     77 % 0.00 in
15:09 29.8 °F 23.8 °F 29.93 in Calm     78 % 0.00 in
15:14 29.7 °F 23.7 °F 29.93 in Calm     78 % 0.00 in
15:19 29.6 °F 23.9 °F 29.93 in Calm     79 % 0.00 in
15:24 29.5 °F 24.1 °F 29.93 in Calm     80 % 0.00 in
15:29 29.4 °F 24.0 °F 29.93 in Calm     80 % 0.00 in
15:34 29.3 °F 24.5 °F 29.92 in Calm     82 % 0.00 in
15:39 29.2 °F 24.7 °F 29.92 in Calm     83 % 0.00 in
15:44 29.1 °F 24.9 °F 29.92 in Calm     84 % 0.00 in
15:49 29.0 °F 24.8 °F 29.92 in NE 1.0 mph 2.3 mph 84 % 0.00 in
15:55 28.9 °F 25.0 °F 29.91 in NNE 0.1 mph   85 % 0.00 in
16:00 28.8 °F 24.9 °F 29.91 in NNE 0.5 mph 2.3 mph 85 % 0.00 in
16:05 28.7 °F 25.0 °F 29.91 in NNW 1.5 mph 3.5 mph 86 % 0.00 in
16:15 28.5 °F 24.8 °F 29.90 in NNW 0.2 mph 3.5 mph 86 % 0.00 in
16:20 28.5 °F 24.8 °F 29.90 in Calm     86 % 0.00 in
16:25 28.4 °F 24.7 °F 29.91 in Calm     86 % 0.00 in
16:31 28.3 °F 24.7 °F 29.91 in Calm   3.0 mph 86 % 0.00 in
16:36 28.3 °F 24.9 °F 29.91 in Calm   1.2 mph 87 % 0.00 in
16:41 28.2 °F 24.9 °F 29.91 in NW 1.0 mph 3.0 mph 87 % 0.00 in
16:46 28.2 °F 24.8 °F 29.92 in Calm   2.0 mph 87 % 0.00 in
16:51 28.2 °F 24.8 °F 29.92 in WNW 2.0 mph 3.0 mph 87 % 0.00 in
16:56 28.1 °F 25.0 °F 29.92 in Calm   1.2 mph 88 % 0.01 in
17:01 28.1 °F 25.0 °F 29.92 in West 3.2 mph 5.0 mph 88 % 0.02 in
17:06 28.1 °F 25.0 °F 29.92 in WSW 0.6 mph 5.0 mph 88 % 0.02 in
17:11 28.1 °F 25.3 °F 29.92 in West 1.6 mph 3.5 mph 89 % 0.03 in
17:12 28.1 °F 25.3 °F 29.92 in West 0.3 mph 3.5 mph 89 % 0.03 in
17:18 28.0 °F 25.2 °F 29.92 in West 1.1 mph 3.0 mph 89 % 0.04 in
17:23 27.9 °F 25.1 °F 29.92 in West 1.6 mph 3.5 mph 89 % 0.04 in
17:28 27.8 °F 25.0 °F 29.92 in West 1.2 mph 3.5 mph 89 % 0.05 in
17:32 27.8 °F 25.0 °F 29.70 in West 1.2 mph 3.5 mph 89 % 0.05 in
17:37 27.7 °F 24.9 °F 29.92 in West 0.3 mph 2.0 mph 89 % 0.04 in
17:40 27.6 °F 24.8 °F 29.70 in West 0.8 mph 2.3 mph 89 % 0.04 in
17:45 27.6 °F 24.8 °F 29.92 in SW 1.6 mph 3.5 mph 89 % 0.05 in
17:46 27.6 °F 24.8 °F 29.70 in SW 0.3 mph 3.5 mph 89 % 0.05 in
17:51 27.5 °F 25.0 °F 29.92 in SW 0.7 mph 3.0 mph 90 % 0.05 in
17:56 27.4 °F 24.6 °F 29.92 in WSW 0.1 mph 1.2 mph 89 % 0.04 in
17:59 27.4 °F 24.9 °F 29.70 in SW 1.7 mph 3.5 mph 90 % 0.04 in
18:04 27.3 °F 24.8 °F 29.92 in Calm     90 % 0.05 in
18:09 27.2 °F 24.7 °F 29.69 in Calm     90 % 0.04 in
18:14 27.2 °F 24.7 °F 29.91 in SW 1.9 mph 3.5 mph 90 % 0.04 in
18:15 27.2 °F 24.7 °F 29.92 in SW 1.7 mph 3.5 mph 90 % 0.04 in
18:19 27.1 °F 24.6 °F 29.91 in WSW 1.6 mph 3.5 mph 90 % 0.03 in
18:24 27.1 °F 24.6 °F 29.91 in WSW 0.5 mph 2.0 mph 90 % 0.03 in
18:28 27.0 °F 24.5 °F 29.92 in WSW 1.0 mph 2.3 mph 90 % 0.02 in
18:33 27.0 °F 24.5 °F 29.92 in Calm   1.2 mph 90 % 0.02 in
18:34 27.0 °F 24.5 °F 29.91 in WSW 1.6 mph 3.0 mph 90 % 0.02 in
18:35 26.9 °F 24.4 °F 29.91 in WSW 1.4 mph 3.5 mph 90 % 0.02 in
18:40 26.9 °F 24.4 °F 29.91 in WSW 0.3 mph 1.2 mph 90 % 0.03 in
18:45 26.9 °F 24.4 °F 29.91 in WSW 0.6 mph 3.5 mph 90 % 0.02 in
18:46 26.9 °F 24.4 °F 29.91 in WSW 0.5 mph 2.3 mph 90 % 0.02 in
18:52 26.8 °F 24.3 °F 29.91 in WSW 0.2 mph 2.3 mph 90 % 0.02 in
18:54 26.8 °F 24.3 °F 29.91 in WSW 0.2 mph 1.2 mph 90 % 0.02 in
18:59 26.7 °F 24.2 °F 29.90 in Calm   1.2 mph 90 % 0.02 in
19:00 26.7 °F 24.2 °F 29.90 in Calm   1.2 mph 90 % 0.01 in
19:05 26.7 °F 24.2 °F 29.90 in WSW 0.7 mph 2.3 mph 90 % 0.01 in
19:08 26.7 °F 24.2 °F 29.91 in SW 1.6 mph 3.0 mph 90 % 0.01 in
19:13 26.6 °F 24.1 °F 29.91 in Calm   1.2 mph 90 % 0.01 in
19:18 26.7 °F 24.4 °F 29.91 in WSW 1.3 mph 3.5 mph 91 % 0.01 in
19:20 26.6 °F 24.3 °F 29.91 in WSW 0.3 mph 1.2 mph 91 % 0.01 in
19:25 26.6 °F 24.3 °F 29.91 in Calm   1.0 mph 91 % 0.01 in
19:27 26.6 °F 24.3 °F 29.91 in SW 0.1 mph 1.2 mph 91 % 0.01 in
19:31 26.6 °F 24.3 °F 29.90 in Calm     91 % 0.02 in
19:32 26.7 °F 24.4 °F 29.90 in Calm     91 % 0.02 in
19:37 26.7 °F 24.4 °F 29.91 in SW 0.5 mph 2.3 mph 91 % 0.01 in
19:39 26.7 °F 24.4 °F 29.91 in Calm   1.2 mph 91 % 0.01 in
19:43 26.7 °F 24.4 °F 29.91 in Calm   3.5 mph 91 % 0.01 in
19:49 26.7 °F 24.4 °F 29.90 in Calm   2.3 mph 91 % 0.01 in
19:53 26.7 °F 24.4 °F 29.91 in SW 0.6 mph 2.3 mph 91 % 0.01 in
19:58 26.7 °F 24.4 °F 29.90 in Calm     91 % 0.01 in
20:00 26.7 °F 24.4 °F 29.90 in Calm     91 % 0.01 in
20:01 26.7 °F 24.4 °F 29.90 in West 0.2 mph 1.2 mph 91 % 0.01 in
20:06 26.7 °F 24.4 °F 29.90 in Calm   1.2 mph 91 % 0.01 in
20:10 26.7 °F 24.4 °F 29.90 in SW 0.6 mph 3.5 mph 91 % 0.01 in
20:15 26.7 °F 24.4 °F 29.89 in West 0.2 mph 2.3 mph 91 % 0.01 in
20:16 26.7 °F 24.7 °F 29.89 in West 0.2 mph 1.2 mph 92 % 0.01 in
20:21 26.7 °F 24.7 °F 29.90 in SW 1.2 mph 4.0 mph 92 % 0.01 in
20:25 26.7 °F 24.7 °F 29.90 in Calm     92 % 0.01 in
20:30 26.7 °F 24.7 °F 29.90 in West 0.1 mph 1.2 mph 92 % 0.02 in
20:31 26.7 °F 24.7 °F 29.90 in West 0.5 mph 2.3 mph 92 % 0.01 in
20:36 26.7 °F 24.7 °F 29.89 in West 0.5 mph 3.5 mph 92 % 0.01 in
20:37 26.7 °F 24.7 °F 29.89 in West 0.5 mph 2.3 mph 92 % 0.01 in
20:39 26.7 °F 24.7 °F 29.90 in SW 1.8 mph 4.0 mph 92 % 0.01 in
20:45 26.8 °F 24.8 °F 29.90 in SW 2.0 mph 4.0 mph 92 % 0.01 in
20:50 26.8 °F 24.8 °F 29.90 in SW 2.8 mph 4.6 mph 92 % 0.01 in
20:55 26.8 °F 24.8 °F 29.90 in SW 1.3 mph 3.5 mph 92 % 0.01 in
20:56 26.8 °F 24.8 °F 29.90 in SW 0.7 mph 3.5 mph 92 % 0.01 in
21:02 26.9 °F 24.9 °F 29.90 in SW 2.7 mph 5.0 mph 92 % 0.01 in
21:03 26.9 °F 24.9 °F 29.90 in WSW 2.7 mph 6.9 mph 92 % 0.01 in
21:08 26.9 °F 24.9 °F 29.89 in West 1.3 mph 3.5 mph 92 % 0.01 in
21:13 26.8 °F 24.8 °F 29.90 in WSW 2.6 mph 6.0 mph 92 % 0.01 in
21:14 26.9 °F 24.9 °F 29.90 in WSW 2.7 mph 5.8 mph 92 % 0.01 in
21:20 26.9 °F 24.9 °F 29.89 in SW 3.3 mph 5.0 mph 92 % 0.01 in
21:25 26.8 °F 24.8 °F 29.89 in WSW 3.2 mph 5.8 mph 92 % 0.01 in
21:28 26.9 °F 24.9 °F 29.89 in WSW 2.5 mph 4.6 mph 92 % 0.01 in
21:33 26.9 °F 24.9 °F 29.90 in WSW 2.1 mph 3.5 mph 92 % 0.00 in
21:34 26.8 °F 24.8 °F 29.90 in West 0.6 mph 4.6 mph 92 % 0.00 in
21:39 26.8 °F 24.8 °F 29.89 in SW 1.9 mph 5.8 mph 92 % 0.00 in
21:41 26.8 °F 24.8 °F 29.90 in West 2.0 mph 4.6 mph 92 % 0.00 in
21:46 26.8 °F 24.5 °F 29.89 in WSW 3.2 mph 3.5 mph 91 % 0.00 in
21:49 26.7 °F 24.4 °F 29.89 in SSW 2.7 mph 6.9 mph 91 % 0.00 in
21:54 26.7 °F 24.4 °F 29.90 in SW 3.3 mph 5.8 mph 91 % 0.00 in
21:56 26.6 °F 24.3 °F 29.90 in SW 2.3 mph 3.5 mph 91 % 0.00 in
22:01 26.6 °F 24.3 °F 29.90 in WSW 3.9 mph 10.4 mph 91 % 0.00 in
22:03 26.6 °F 24.3 °F 29.90 in WNW 2.5 mph 10.4 mph 91 % 0.00 in
22:05 26.6 °F 24.3 °F 29.90 in SW 4.8 mph 12.0 mph 91 % 0.00 in
22:10 26.5 °F 24.2 °F 29.90 in WNW 3.0 mph 5.8 mph 91 % 0.00 in
22:16 26.4 °F 23.9 °F 29.90 in West 7.1 mph 11.5 mph 90 % 0.00 in
22:18 26.4 °F 23.9 °F 29.90 in WSW 4.5 mph 8.1 mph 90 % 0.00 in
22:19 26.3 °F 23.8 °F 29.90 in WNW 3.2 mph 4.6 mph 90 % 0.00 in
22:24 26.3 °F 23.5 °F 29.90 in NW 6.1 mph 9.2 mph 89 % 0.00 in
22:29 26.1 °F 23.3 °F 29.90 in SW 5.4 mph 11.5 mph 89 % 0.00 in
22:35 26.0 °F 22.9 °F 29.90 in SSW 5.4 mph 11.5 mph 88 % 0.00 in
22:40 25.8 °F 22.7 °F 29.90 in WSW 5.5 mph 9.2 mph 88 % 0.00 in
22:43 25.8 °F 22.7 °F 29.90 in West 5.0 mph 10.0 mph 88 % 0.00 in
22:48 25.7 °F 22.4 °F 29.90 in SW 5.5 mph 8.1 mph 87 % 0.00 in
22:53 25.6 °F 22.3 °F 29.90 in WNW 6.3 mph 8.0 mph 87 % 0.00 in
22:57 25.6 °F 22.3 °F 29.90 in SW 4.7 mph 9.2 mph 87 % 0.00 in
23:04 25.6 °F 22.3 °F 29.90 in West 3.2 mph 8.1 mph 87 % 0.00 in
23:09 25.5 °F 22.2 °F 29.90 in WNW 3.0 mph 6.9 mph 87 % 0.00 in
23:14 25.4 °F 21.8 °F 29.90 in West 3.6 mph 9.2 mph 86 % 0.00 in
23:19 25.4 °F 21.8 °F 29.90 in WNW 5.6 mph 10.4 mph 86 % 0.00 in
23:22 25.4 °F 21.8 °F 29.90 in WSW 3.6 mph 8.1 mph 86 % 0.00 in
23:27 25.3 °F 21.7 °F 29.90 in West 3.9 mph 7.0 mph 86 % 0.00 in
23:28 25.3 °F 21.7 °F 29.90 in West 4.8 mph 8.1 mph 86 % 0.00 in
23:33 25.3 °F 21.7 °F 29.90 in WNW 1.2 mph 6.9 mph 86 % 0.00 in
23:35 25.3 °F 21.7 °F 29.90 in West 3.0 mph 6.0 mph 86 % 0.00 in
23:37 25.3 °F 21.7 °F 29.90 in West 1.3 mph 3.5 mph 86 % 0.00 in
23:42 25.2 °F 21.6 °F 29.90 in WNW 1.2 mph 3.5 mph 86 % 0.00 in
23:43 25.3 °F 21.7 °F 29.90 in WNW 0.9 mph 3.5 mph 86 % 0.00 in
23:45 25.3 °F 21.7 °F 29.89 in SW 2.0 mph 5.8 mph 86 % 0.00 in
23:52 25.3 °F 22.0 °F 29.89 in SW 2.0 mph 4.0 mph 87 % 0.00 in
23:56 25.2 °F 21.9 °F 29.89 in SW 0.9 mph 2.3 mph 87 % 0.00 in
Crab Meadow Weather
Compliments of Weather Underground - 3 mb

Script developed by  Jim McMurry - jmcmurry@mwt.net Adapted for the template by  Wim van der Kuil - Leuven-Template.eu

Weather Terms: Watch - A watch is used when the risk of a hazardous weather or hydrologic event has increased significantly, but its occurrence, location or timing is still uncertain. It is intended to provide enough lead time so those who need to set their plans in motion can do so. A watch means that hazardous weather is possible. People should have a plan of action in case a storm threatens and they should listen for later information and possible warnings especially when planning travel or outdoor activities.